sensor_id;sensor_type;location;lat;lon;timestamp;P1;durP1;ratioP1;P2;durP2;ratioP2
20531;SDS011;10424;52.102;8.084;2024-01-16T00:01:03;4.07;;;1.60;;
20531;SDS011;10424;52.102;8.084;2024-01-16T00:03:31;3.10;;;1.47;;
20531;SDS011;10424;52.102;8.084;2024-01-16T00:05:58;4.17;;;1.50;;
20531;SDS011;10424;52.102;8.084;2024-01-16T00:08:25;3.73;;;1.83;;
20531;SDS011;10424;52.102;8.084;2024-01-16T00:10:54;3.30;;;1.50;;
20531;SDS011;10424;52.102;8.084;2024-01-16T00:13:21;6.57;;;2.20;;
20531;SDS011;10424;52.102;8.084;2024-01-16T00:15:48;3.80;;;1.70;;
20531;SDS011;10424;52.102;8.084;2024-01-16T00:18:16;3.13;;;1.80;;
20531;SDS011;10424;52.102;8.084;2024-01-16T00:20:44;3.63;;;1.77;;
20531;SDS011;10424;52.102;8.084;2024-01-16T00:23:11;2.80;;;1.80;;
20531;SDS011;10424;52.102;8.084;2024-01-16T00:25:38;6.00;;;2.20;;
20531;SDS011;10424;52.102;8.084;2024-01-16T00:28:07;6.13;;;2.23;;
20531;SDS011;10424;52.102;8.084;2024-01-16T00:30:35;5.17;;;2.10;;
20531;SDS011;10424;52.102;8.084;2024-01-16T00:33:02;8.37;;;2.50;;
20531;SDS011;10424;52.102;8.084;2024-01-16T00:35:29;5.13;;;2.33;;
20531;SDS011;10424;52.102;8.084;2024-01-16T00:37:57;5.00;;;2.07;;
20531;SDS011;10424;52.102;8.084;2024-01-16T00:40:24;3.80;;;1.90;;
20531;SDS011;10424;52.102;8.084;2024-01-16T00:42:51;6.83;;;2.07;;
20531;SDS011;10424;52.102;8.084;2024-01-16T00:45:20;7.97;;;2.40;;
20531;SDS011;10424;52.102;8.084;2024-01-16T00:47:47;8.83;;;2.67;;
20531;SDS011;10424;52.102;8.084;2024-01-16T00:50:14;6.70;;;2.77;;
20531;SDS011;10424;52.102;8.084;2024-01-16T00:52:42;7.07;;;3.00;;
20531;SDS011;10424;52.102;8.084;2024-01-16T00:55:09;8.20;;;2.80;;
20531;SDS011;10424;52.102;8.084;2024-01-16T00:57:36;9.73;;;2.97;;
20531;SDS011;10424;52.102;8.084;2024-01-16T01:00:04;11.33;;;3.47;;
20531;SDS011;10424;52.102;8.084;2024-01-16T01:02:33;5.77;;;2.43;;
20531;SDS011;10424;52.102;8.084;2024-01-16T01:05:00;8.70;;;2.90;;
20531;SDS011;10424;52.102;8.084;2024-01-16T01:07:27;10.07;;;3.00;;
20531;SDS011;10424;52.102;8.084;2024-01-16T01:09:55;10.37;;;3.70;;
20531;SDS011;10424;52.102;8.084;2024-01-16T01:12:22;9.00;;;2.87;;
20531;SDS011;10424;52.102;8.084;2024-01-16T01:14:50;7.80;;;3.53;;
20531;SDS011;10424;52.102;8.084;2024-01-16T01:17:17;14.23;;;3.33;;
20531;SDS011;10424;52.102;8.084;2024-01-16T01:19:46;10.87;;;3.73;;
20531;SDS011;10424;52.102;8.084;2024-01-16T01:22:13;10.17;;;3.70;;
20531;SDS011;10424;52.102;8.084;2024-01-16T01:24:40;8.67;;;3.27;;
20531;SDS011;10424;52.102;8.084;2024-01-16T01:27:07;10.00;;;3.40;;
20531;SDS011;10424;52.102;8.084;2024-01-16T01:29:35;11.60;;;3.63;;
20531;SDS011;10424;52.102;8.084;2024-01-16T01:32:02;8.20;;;3.57;;
20531;SDS011;10424;52.102;8.084;2024-01-16T01:34:29;8.30;;;3.70;;
20531;SDS011;10424;52.102;8.084;2024-01-16T01:36:58;11.57;;;3.90;;
20531;SDS011;10424;52.102;8.084;2024-01-16T01:39:25;10.03;;;4.13;;
20531;SDS011;10424;52.102;8.084;2024-01-16T01:41:54;12.10;;;3.63;;
20531;SDS011;10424;52.102;8.084;2024-01-16T01:44:21;11.03;;;4.10;;
20531;SDS011;10424;52.102;8.084;2024-01-16T01:46:50;16.20;;;4.20;;
20531;SDS011;10424;52.102;8.084;2024-01-16T01:49:17;13.13;;;4.20;;
20531;SDS011;10424;52.102;8.084;2024-01-16T01:51:45;9.67;;;4.07;;
20531;SDS011;10424;52.102;8.084;2024-01-16T01:54:13;11.17;;;4.23;;
20531;SDS011;10424;52.102;8.084;2024-01-16T01:56:42;9.40;;;3.90;;
20531;SDS011;10424;52.102;8.084;2024-01-16T01:59:11;13.07;;;4.10;;
20531;SDS011;10424;52.102;8.084;2024-01-16T02:01:38;11.73;;;4.07;;
20531;SDS011;10424;52.102;8.084;2024-01-16T02:04:05;10.93;;;3.73;;
20531;SDS011;10424;52.102;8.084;2024-01-16T02:06:33;10.17;;;3.40;;
20531;SDS011;10424;52.102;8.084;2024-01-16T02:09:00;8.47;;;3.40;;
20531;SDS011;10424;52.102;8.084;2024-01-16T02:11:33;9.30;;;3.80;;
20531;SDS011;10424;52.102;8.084;2024-01-16T02:14:00;10.67;;;4.33;;
20531;SDS011;10424;52.102;8.084;2024-01-16T02:16:34;10.00;;;3.83;;
20531;SDS011;10424;52.102;8.084;2024-01-16T02:19:02;8.37;;;4.10;;
20531;SDS011;10424;52.102;8.084;2024-01-16T02:21:29;9.10;;;4.03;;
20531;SDS011;10424;52.102;8.084;2024-01-16T02:24:01;15.23;;;4.50;;
20531;SDS011;10424;52.102;8.084;2024-01-16T02:26:28;10.97;;;4.23;;
20531;SDS011;10424;52.102;8.084;2024-01-16T02:28:55;11.37;;;4.10;;
20531;SDS011;10424;52.102;8.084;2024-01-16T02:31:23;10.50;;;4.00;;
20531;SDS011;10424;52.102;8.084;2024-01-16T02:33:50;10.30;;;4.20;;
20531;SDS011;10424;52.102;8.084;2024-01-16T02:36:18;11.33;;;3.80;;
20531;SDS011;10424;52.102;8.084;2024-01-16T02:38:45;15.97;;;5.07;;
20531;SDS011;10424;52.102;8.084;2024-01-16T02:41:14;11.67;;;4.70;;
20531;SDS011;10424;52.102;8.084;2024-01-16T02:43:42;11.03;;;4.37;;
20531;SDS011;10424;52.102;8.084;2024-01-16T02:46:09;11.97;;;4.20;;
20531;SDS011;10424;52.102;8.084;2024-01-16T02:48:37;9.10;;;4.13;;
20531;SDS011;10424;52.102;8.084;2024-01-16T02:51:04;16.10;;;4.27;;
20531;SDS011;10424;52.102;8.084;2024-01-16T02:53:31;12.40;;;3.87;;
20531;SDS011;10424;52.102;8.084;2024-01-16T02:55:59;10.60;;;3.53;;
20531;SDS011;10424;52.102;8.084;2024-01-16T02:58:27;13.27;;;4.00;;
20531;SDS011;10424;52.102;8.084;2024-01-16T03:00:55;7.60;;;3.50;;
20531;SDS011;10424;52.102;8.084;2024-01-16T03:03:23;9.03;;;4.60;;
20531;SDS011;10424;52.102;8.084;2024-01-16T03:05:50;11.20;;;4.23;;
20531;SDS011;10424;52.102;8.084;2024-01-16T03:08:18;13.80;;;4.60;;
20531;SDS011;10424;52.102;8.084;2024-01-16T03:10:45;11.60;;;4.80;;
20531;SDS011;10424;52.102;8.084;2024-01-16T03:13:12;13.27;;;4.60;;
20531;SDS011;10424;52.102;8.084;2024-01-16T03:15:41;10.43;;;4.97;;
20531;SDS011;10424;52.102;8.084;2024-01-16T03:18:08;15.57;;;5.13;;
20531;SDS011;10424;52.102;8.084;2024-01-16T03:20:36;11.50;;;5.20;;
20531;SDS011;10424;52.102;8.084;2024-01-16T03:23:03;12.37;;;4.93;;
20531;SDS011;10424;52.102;8.084;2024-01-16T03:25:31;14.33;;;5.30;;
20531;SDS011;10424;52.102;8.084;2024-01-16T03:28:03;14.23;;;5.90;;
20531;SDS011;10424;52.102;8.084;2024-01-16T03:30:33;13.23;;;5.20;;
20531;SDS011;10424;52.102;8.084;2024-01-16T03:33:03;14.60;;;5.50;;
20531;SDS011;10424;52.102;8.084;2024-01-16T03:35:30;11.67;;;5.33;;
20531;SDS011;10424;52.102;8.084;2024-01-16T03:37:57;13.67;;;5.70;;
20531;SDS011;10424;52.102;8.084;2024-01-16T03:40:24;16.77;;;5.97;;
20531;SDS011;10424;52.102;8.084;2024-01-16T03:42:52;14.30;;;6.47;;
20531;SDS011;10424;52.102;8.084;2024-01-16T03:45:19;15.00;;;5.67;;
20531;SDS011;10424;52.102;8.084;2024-01-16T03:47:46;11.33;;;3.83;;
20531;SDS011;10424;52.102;8.084;2024-01-16T03:50:16;12.13;;;5.80;;
20531;SDS011;10424;52.102;8.084;2024-01-16T03:52:44;16.57;;;6.10;;
20531;SDS011;10424;52.102;8.084;2024-01-16T03:55:11;13.07;;;6.23;;
20531;SDS011;10424;52.102;8.084;2024-01-16T03:57:38;12.33;;;5.07;;
20531;SDS011;10424;52.102;8.084;2024-01-16T04:00:06;14.77;;;6.13;;
20531;SDS011;10424;52.102;8.084;2024-01-16T04:02:37;13.67;;;6.43;;
20531;SDS011;10424;52.102;8.084;2024-01-16T04:05:05;15.53;;;6.13;;
20531;SDS011;10424;52.102;8.084;2024-01-16T04:07:33;13.50;;;6.00;;
20531;SDS011;10424;52.102;8.084;2024-01-16T04:10:01;12.83;;;6.00;;
20531;SDS011;10424;52.102;8.084;2024-01-16T04:12:30;17.07;;;6.37;;
20531;SDS011;10424;52.102;8.084;2024-01-16T04:14:57;15.30;;;6.50;;
20531;SDS011;10424;52.102;8.084;2024-01-16T04:17:24;16.30;;;6.57;;
20531;SDS011;10424;52.102;8.084;2024-01-16T04:19:52;19.70;;;6.00;;
20531;SDS011;10424;52.102;8.084;2024-01-16T04:22:19;16.87;;;6.40;;
20531;SDS011;10424;52.102;8.084;2024-01-16T04:24:48;14.30;;;6.23;;
20531;SDS011;10424;52.102;8.084;2024-01-16T04:27:15;14.43;;;5.97;;
20531;SDS011;10424;52.102;8.084;2024-01-16T04:29:42;14.53;;;6.10;;
20531;SDS011;10424;52.102;8.084;2024-01-16T04:32:10;8.53;;;4.20;;
20531;SDS011;10424;52.102;8.084;2024-01-16T04:34:37;14.63;;;5.67;;
20531;SDS011;10424;52.102;8.084;2024-01-16T04:37:04;15.33;;;6.33;;
20531;SDS011;10424;52.102;8.084;2024-01-16T04:39:31;8.83;;;4.57;;
20531;SDS011;10424;52.102;8.084;2024-01-16T04:42:00;13.03;;;5.47;;
20531;SDS011;10424;52.102;8.084;2024-01-16T04:44:27;14.73;;;5.17;;
20531;SDS011;10424;52.102;8.084;2024-01-16T04:46:55;14.53;;;5.33;;
20531;SDS011;10424;52.102;8.084;2024-01-16T04:49:22;11.23;;;4.73;;
20531;SDS011;10424;52.102;8.084;2024-01-16T04:51:49;13.27;;;4.80;;
20531;SDS011;10424;52.102;8.084;2024-01-16T04:54:16;12.93;;;5.30;;
20531;SDS011;10424;52.102;8.084;2024-01-16T04:56:44;17.07;;;5.17;;
20531;SDS011;10424;52.102;8.084;2024-01-16T04:59:12;10.60;;;4.47;;
20531;SDS011;10424;52.102;8.084;2024-01-16T05:01:40;8.40;;;3.27;;
20531;SDS011;10424;52.102;8.084;2024-01-16T05:04:07;14.80;;;4.33;;
20531;SDS011;10424;52.102;8.084;2024-01-16T05:06:35;15.97;;;5.40;;
20531;SDS011;10424;52.102;8.084;2024-01-16T05:09:02;15.87;;;5.37;;
20531;SDS011;10424;52.102;8.084;2024-01-16T05:11:30;13.90;;;4.90;;
20531;SDS011;10424;52.102;8.084;2024-01-16T05:13:57;12.20;;;4.93;;
20531;SDS011;10424;52.102;8.084;2024-01-16T05:16:25;12.13;;;4.67;;
20531;SDS011;10424;52.102;8.084;2024-01-16T05:18:53;14.07;;;5.60;;
20531;SDS011;10424;52.102;8.084;2024-01-16T05:21:20;12.03;;;5.30;;
20531;SDS011;10424;52.102;8.084;2024-01-16T05:23:47;13.03;;;5.50;;
20531;SDS011;10424;52.102;8.084;2024-01-16T05:26:15;14.70;;;5.33;;
20531;SDS011;10424;52.102;8.084;2024-01-16T05:28:42;12.40;;;5.17;;
20531;SDS011;10424;52.102;8.084;2024-01-16T05:31:09;13.30;;;5.17;;
20531;SDS011;10424;52.102;8.084;2024-01-16T05:33:38;14.40;;;6.10;;
20531;SDS011;10424;52.102;8.084;2024-01-16T05:36:05;11.93;;;5.60;;
20531;SDS011;10424;52.102;8.084;2024-01-16T05:38:33;13.83;;;5.93;;
20531;SDS011;10424;52.102;8.084;2024-01-16T05:41:00;18.23;;;5.03;;
20531;SDS011;10424;52.102;8.084;2024-01-16T05:43:28;13.23;;;5.10;;
20531;SDS011;10424;52.102;8.084;2024-01-16T05:45:56;13.20;;;5.90;;
20531;SDS011;10424;52.102;8.084;2024-01-16T05:48:23;16.13;;;6.43;;
20531;SDS011;10424;52.102;8.084;2024-01-16T05:50:52;13.17;;;5.63;;
20531;SDS011;10424;52.102;8.084;2024-01-16T05:53:19;14.70;;;5.37;;
20531;SDS011;10424;52.102;8.084;2024-01-16T05:55:46;13.93;;;5.27;;
20531;SDS011;10424;52.102;8.084;2024-01-16T05:58:13;13.37;;;5.90;;
20531;SDS011;10424;52.102;8.084;2024-01-16T06:00:41;14.93;;;6.17;;
20531;SDS011;10424;52.102;8.084;2024-01-16T06:03:08;14.10;;;6.33;;
20531;SDS011;10424;52.102;8.084;2024-01-16T06:05:35;16.20;;;6.17;;
20531;SDS011;10424;52.102;8.084;2024-01-16T06:08:04;12.97;;;5.87;;
20531;SDS011;10424;52.102;8.084;2024-01-16T06:10:31;14.23;;;6.07;;
20531;SDS011;10424;52.102;8.084;2024-01-16T06:12:59;18.10;;;6.83;;
20531;SDS011;10424;52.102;8.084;2024-01-16T06:15:26;18.37;;;6.77;;
20531;SDS011;10424;52.102;8.084;2024-01-16T06:17:53;16.57;;;6.73;;
20531;SDS011;10424;52.102;8.084;2024-01-16T06:20:20;15.90;;;6.00;;
20531;SDS011;10424;52.102;8.084;2024-01-16T06:22:49;16.33;;;6.13;;
20531;SDS011;10424;52.102;8.084;2024-01-16T06:25:18;17.17;;;6.53;;
20531;SDS011;10424;52.102;8.084;2024-01-16T06:27:45;17.07;;;7.27;;
20531;SDS011;10424;52.102;8.084;2024-01-16T06:30:13;14.20;;;6.30;;
20531;SDS011;10424;52.102;8.084;2024-01-16T06:32:40;11.90;;;5.60;;
20531;SDS011;10424;52.102;8.084;2024-01-16T06:35:07;16.73;;;6.57;;
20531;SDS011;10424;52.102;8.084;2024-01-16T06:40:04;17.17;;;7.07;;
20531;SDS011;10424;52.102;8.084;2024-01-16T06:42:33;16.40;;;6.83;;
20531;SDS011;10424;52.102;8.084;2024-01-16T06:45:01;17.07;;;7.10;;
20531;SDS011;10424;52.102;8.084;2024-01-16T06:47:28;15.57;;;7.00;;
20531;SDS011;10424;52.102;8.084;2024-01-16T06:49:55;18.20;;;7.13;;
20531;SDS011;10424;52.102;8.084;2024-01-16T06:52:23;20.60;;;6.90;;
20531;SDS011;10424;52.102;8.084;2024-01-16T06:54:50;14.50;;;6.20;;
20531;SDS011;10424;52.102;8.084;2024-01-16T06:57:17;20.33;;;7.40;;
20531;SDS011;10424;52.102;8.084;2024-01-16T06:59:46;16.73;;;7.43;;
20531;SDS011;10424;52.102;8.084;2024-01-16T07:02:13;15.70;;;6.57;;
20531;SDS011;10424;52.102;8.084;2024-01-16T07:04:40;15.27;;;7.00;;
20531;SDS011;10424;52.102;8.084;2024-01-16T07:07:08;18.43;;;6.77;;
20531;SDS011;10424;52.102;8.084;2024-01-16T07:09:35;16.57;;;7.10;;
20531;SDS011;10424;52.102;8.084;2024-01-16T07:12:03;21.17;;;9.00;;
20531;SDS011;10424;52.102;8.084;2024-01-16T07:14:32;19.17;;;6.87;;
20531;SDS011;10424;52.102;8.084;2024-01-16T07:17:00;15.70;;;6.53;;
20531;SDS011;10424;52.102;8.084;2024-01-16T07:19:28;18.73;;;7.07;;
20531;SDS011;10424;52.102;8.084;2024-01-16T07:21:55;16.53;;;6.77;;
20531;SDS011;10424;52.102;8.084;2024-01-16T07:24:23;15.47;;;6.63;;
20531;SDS011;10424;52.102;8.084;2024-01-16T07:26:50;13.77;;;6.07;;
20531;SDS011;10424;52.102;8.084;2024-01-16T07:29:19;12.60;;;5.40;;
20531;SDS011;10424;52.102;8.084;2024-01-16T07:31:46;14.57;;;5.90;;
20531;SDS011;10424;52.102;8.084;2024-01-16T07:34:15;14.10;;;6.37;;
20531;SDS011;10424;52.102;8.084;2024-01-16T07:36:47;15.67;;;6.83;;
20531;SDS011;10424;52.102;8.084;2024-01-16T07:39:15;18.00;;;6.70;;
20531;SDS011;10424;52.102;8.084;2024-01-16T07:41:42;16.93;;;6.50;;
20531;SDS011;10424;52.102;8.084;2024-01-16T07:44:09;14.90;;;6.43;;
20531;SDS011;10424;52.102;8.084;2024-01-16T07:46:37;15.90;;;6.63;;
20531;SDS011;10424;52.102;8.084;2024-01-16T07:49:04;13.53;;;6.17;;
20531;SDS011;10424;52.102;8.084;2024-01-16T07:51:33;16.40;;;6.30;;
20531;SDS011;10424;52.102;8.084;2024-01-16T07:54:06;12.40;;;5.10;;
20531;SDS011;10424;52.102;8.084;2024-01-16T07:56:34;14.73;;;6.13;;
20531;SDS011;10424;52.102;8.084;2024-01-16T07:59:01;13.13;;;5.83;;
20531;SDS011;10424;52.102;8.084;2024-01-16T08:01:29;15.10;;;6.70;;
20531;SDS011;10424;52.102;8.084;2024-01-16T08:03:56;16.17;;;6.17;;
20531;SDS011;10424;52.102;8.084;2024-01-16T08:06:24;14.13;;;6.13;;
20531;SDS011;10424;52.102;8.084;2024-01-16T08:08:52;14.63;;;5.77;;
20531;SDS011;10424;52.102;8.084;2024-01-16T08:11:20;14.67;;;6.20;;
20531;SDS011;10424;52.102;8.084;2024-01-16T08:13:47;11.43;;;5.73;;
20531;SDS011;10424;52.102;8.084;2024-01-16T08:16:14;14.93;;;6.63;;
20531;SDS011;10424;52.102;8.084;2024-01-16T08:18:41;12.87;;;6.10;;
20531;SDS011;10424;52.102;8.084;2024-01-16T08:21:09;12.33;;;6.33;;
20531;SDS011;10424;52.102;8.084;2024-01-16T08:23:36;13.13;;;5.90;;
20531;SDS011;10424;52.102;8.084;2024-01-16T08:26:05;15.00;;;6.57;;
20531;SDS011;10424;52.102;8.084;2024-01-16T08:28:32;12.20;;;6.00;;
20531;SDS011;10424;52.102;8.084;2024-01-16T08:31:01;12.97;;;6.00;;
20531;SDS011;10424;52.102;8.084;2024-01-16T08:33:28;12.83;;;6.20;;
20531;SDS011;10424;52.102;8.084;2024-01-16T08:35:56;15.17;;;6.27;;
20531;SDS011;10424;52.102;8.084;2024-01-16T08:38:24;14.93;;;6.53;;
20531;SDS011;10424;52.102;8.084;2024-01-16T08:40:51;17.47;;;6.00;;
20531;SDS011;10424;52.102;8.084;2024-01-16T08:43:20;13.17;;;6.67;;
20531;SDS011;10424;52.102;8.084;2024-01-16T08:45:47;14.77;;;5.93;;
20531;SDS011;10424;52.102;8.084;2024-01-16T08:48:15;12.33;;;6.27;;
20531;SDS011;10424;52.102;8.084;2024-01-16T08:50:42;13.20;;;5.90;;
20531;SDS011;10424;52.102;8.084;2024-01-16T08:53:10;16.43;;;6.03;;
20531;SDS011;10424;52.102;8.084;2024-01-16T08:55:38;14.43;;;6.17;;
20531;SDS011;10424;52.102;8.084;2024-01-16T08:58:05;9.67;;;3.87;;
20531;SDS011;10424;52.102;8.084;2024-01-16T09:00:34;14.73;;;6.27;;
20531;SDS011;10424;52.102;8.084;2024-01-16T09:03:03;9.00;;;4.87;;
20531;SDS011;10424;52.102;8.084;2024-01-16T09:05:30;12.27;;;5.63;;
20531;SDS011;10424;52.102;8.084;2024-01-16T09:08:00;12.60;;;5.53;;
20531;SDS011;10424;52.102;8.084;2024-01-16T09:10:27;14.23;;;4.83;;
20531;SDS011;10424;52.102;8.084;2024-01-16T09:12:55;11.67;;;5.40;;
20531;SDS011;10424;52.102;8.084;2024-01-16T09:15:22;16.30;;;6.00;;
20531;SDS011;10424;52.102;8.084;2024-01-16T09:17:51;12.27;;;5.53;;
20531;SDS011;10424;52.102;8.084;2024-01-16T09:20:18;13.60;;;5.33;;
20531;SDS011;10424;52.102;8.084;2024-01-16T09:22:45;13.33;;;5.43;;
20531;SDS011;10424;52.102;8.084;2024-01-16T09:25:13;11.43;;;4.53;;
20531;SDS011;10424;52.102;8.084;2024-01-16T09:27:41;10.37;;;4.60;;
20531;SDS011;10424;52.102;8.084;2024-01-16T09:30:08;10.57;;;4.93;;
20531;SDS011;10424;52.102;8.084;2024-01-16T09:32:37;12.63;;;5.47;;
20531;SDS011;10424;52.102;8.084;2024-01-16T09:35:06;13.83;;;5.83;;
20531;SDS011;10424;52.102;8.084;2024-01-16T09:37:34;12.70;;;5.80;;
20531;SDS011;10424;52.102;8.084;2024-01-16T09:40:01;14.10;;;5.27;;
20531;SDS011;10424;52.102;8.084;2024-01-16T09:42:30;10.87;;;5.00;;
20531;SDS011;10424;52.102;8.084;2024-01-16T09:44:57;10.67;;;5.37;;
20531;SDS011;10424;52.102;8.084;2024-01-16T09:47:27;13.77;;;6.10;;
20531;SDS011;10424;52.102;8.084;2024-01-16T09:49:56;11.33;;;5.70;;
20531;SDS011;10424;52.102;8.084;2024-01-16T09:52:25;14.13;;;6.77;;
20531;SDS011;10424;52.102;8.084;2024-01-16T09:54:53;17.73;;;5.53;;
20531;SDS011;10424;52.102;8.084;2024-01-16T09:57:20;16.57;;;7.57;;
20531;SDS011;10424;52.102;8.084;2024-01-16T09:59:51;12.93;;;6.63;;
20531;SDS011;10424;52.102;8.084;2024-01-16T10:02:19;14.97;;;6.90;;
20531;SDS011;10424;52.102;8.084;2024-01-16T10:04:47;13.00;;;6.23;;
20531;SDS011;10424;52.102;8.084;2024-01-16T10:07:15;16.00;;;7.27;;
20531;SDS011;10424;52.102;8.084;2024-01-16T10:09:44;18.47;;;6.83;;
20531;SDS011;10424;52.102;8.084;2024-01-16T10:12:12;16.50;;;7.20;;
20531;SDS011;10424;52.102;8.084;2024-01-16T10:14:40;16.40;;;7.17;;
20531;SDS011;10424;52.102;8.084;2024-01-16T10:17:08;10.10;;;5.17;;
20531;SDS011;10424;52.102;8.084;2024-01-16T10:19:47;14.97;;;7.10;;
20531;SDS011;10424;52.102;8.084;2024-01-16T10:22:19;16.67;;;7.90;;
20531;SDS011;10424;52.102;8.084;2024-01-16T10:24:48;16.10;;;8.17;;
20531;SDS011;10424;52.102;8.084;2024-01-16T10:27:15;16.20;;;7.50;;
20531;SDS011;10424;52.102;8.084;2024-01-16T10:29:54;18.67;;;8.87;;
20531;SDS011;10424;52.102;8.084;2024-01-16T10:32:26;16.70;;;9.27;;
20531;SDS011;10424;52.102;8.084;2024-01-16T10:35:01;22.30;;;9.90;;
20531;SDS011;10424;52.102;8.084;2024-01-16T10:37:29;18.80;;;9.57;;
20531;SDS011;10424;52.102;8.084;2024-01-16T10:39:58;19.13;;;9.07;;
20531;SDS011;10424;52.102;8.084;2024-01-16T10:42:25;21.97;;;8.77;;
20531;SDS011;10424;52.102;8.084;2024-01-16T10:44:52;19.27;;;7.97;;
20531;SDS011;10424;52.102;8.084;2024-01-16T10:47:21;18.53;;;9.07;;
20531;SDS011;10424;52.102;8.084;2024-01-16T10:49:48;21.00;;;10.83;;
20531;SDS011;10424;52.102;8.084;2024-01-16T10:52:17;23.17;;;10.50;;
20531;SDS011;10424;52.102;8.084;2024-01-16T10:54:45;17.50;;;8.97;;
20531;SDS011;10424;52.102;8.084;2024-01-16T10:57:16;27.13;;;12.80;;
20531;SDS011;10424;52.102;8.084;2024-01-16T10:59:46;22.23;;;10.70;;
20531;SDS011;10424;52.102;8.084;2024-01-16T11:02:16;18.43;;;10.20;;
20531;SDS011;10424;52.102;8.084;2024-01-16T11:04:47;14.50;;;6.90;;
20531;SDS011;10424;52.102;8.084;2024-01-16T11:07:14;18.20;;;9.27;;
20531;SDS011;10424;52.102;8.084;2024-01-16T11:09:42;23.97;;;9.47;;
20531;SDS011;10424;52.102;8.084;2024-01-16T11:12:10;29.07;;;12.30;;
20531;SDS011;10424;52.102;8.084;2024-01-16T11:14:43;26.70;;;11.70;;
20531;SDS011;10424;52.102;8.084;2024-01-16T11:17:11;26.13;;;12.40;;
20531;SDS011;10424;52.102;8.084;2024-01-16T11:19:43;13.83;;;7.33;;
20531;SDS011;10424;52.102;8.084;2024-01-16T11:22:11;20.80;;;9.63;;
20531;SDS011;10424;52.102;8.084;2024-01-16T11:24:39;16.23;;;7.30;;
20531;SDS011;10424;52.102;8.084;2024-01-16T11:27:07;16.60;;;8.90;;
20531;SDS011;10424;52.102;8.084;2024-01-16T11:29:35;13.77;;;7.43;;
20531;SDS011;10424;52.102;8.084;2024-01-16T11:32:04;19.83;;;9.70;;
20531;SDS011;10424;52.102;8.084;2024-01-16T11:37:24;15.27;;;8.30;;
20531;SDS011;10424;52.102;8.084;2024-01-16T11:39:54;16.23;;;8.17;;
20531;SDS011;10424;52.102;8.084;2024-01-16T11:42:25;16.30;;;7.50;;
20531;SDS011;10424;52.102;8.084;2024-01-16T11:44:53;15.13;;;7.23;;
20531;SDS011;10424;52.102;8.084;2024-01-16T11:47:22;19.57;;;8.77;;
20531;SDS011;10424;52.102;8.084;2024-01-16T11:49:50;16.53;;;7.00;;
20531;SDS011;10424;52.102;8.084;2024-01-16T11:52:38;13.53;;;6.63;;
20531;SDS011;10424;52.102;8.084;2024-01-16T11:57:52;9.63;;;4.83;;
20531;SDS011;10424;52.102;8.084;2024-01-16T12:00:27;9.97;;;5.67;;
20531;SDS011;10424;52.102;8.084;2024-01-16T12:02:56;10.83;;;5.03;;
20531;SDS011;10424;52.102;8.084;2024-01-16T12:05:24;9.00;;;4.27;;
20531;SDS011;10424;52.102;8.084;2024-01-16T12:07:51;10.00;;;4.50;;
20531;SDS011;10424;52.102;8.084;2024-01-16T12:10:20;8.67;;;4.77;;
20531;SDS011;10424;52.102;8.084;2024-01-16T12:12:48;11.77;;;4.80;;
20531;SDS011;10424;52.102;8.084;2024-01-16T12:15:16;9.97;;;4.20;;
20531;SDS011;10424;52.102;8.084;2024-01-16T12:17:53;13.80;;;5.63;;
20531;SDS011;10424;52.102;8.084;2024-01-16T12:20:22;13.50;;;5.10;;
20531;SDS011;10424;52.102;8.084;2024-01-16T12:22:54;6.07;;;4.03;;
20531;SDS011;10424;52.102;8.084;2024-01-16T12:25:22;11.27;;;5.63;;
20531;SDS011;10424;52.102;8.084;2024-01-16T12:27:55;16.53;;;5.60;;
20531;SDS011;10424;52.102;8.084;2024-01-16T12:30:23;10.47;;;4.73;;
20531;SDS011;10424;52.102;8.084;2024-01-16T12:32:51;9.20;;;4.17;;
20531;SDS011;10424;52.102;8.084;2024-01-16T12:35:20;9.67;;;4.70;;
20531;SDS011;10424;52.102;8.084;2024-01-16T12:37:58;10.07;;;3.80;;
20531;SDS011;10424;52.102;8.084;2024-01-16T12:40:26;15.23;;;4.80;;
20531;SDS011;10424;52.102;8.084;2024-01-16T12:42:53;14.17;;;6.13;;
20531;SDS011;10424;52.102;8.084;2024-01-16T12:45:21;13.73;;;4.93;;
20531;SDS011;10424;52.102;8.084;2024-01-16T12:47:51;14.13;;;3.17;;
20531;SDS011;10424;52.102;8.084;2024-01-16T12:50:19;14.53;;;4.87;;
20531;SDS011;10424;52.102;8.084;2024-01-16T12:52:47;13.13;;;4.97;;
20531;SDS011;10424;52.102;8.084;2024-01-16T12:55:16;11.30;;;4.20;;
20531;SDS011;10424;52.102;8.084;2024-01-16T12:57:44;11.67;;;4.77;;
20531;SDS011;10424;52.102;8.084;2024-01-16T13:00:21;9.53;;;3.60;;
20531;SDS011;10424;52.102;8.084;2024-01-16T13:02:49;10.27;;;4.50;;
20531;SDS011;10424;52.102;8.084;2024-01-16T13:05:17;8.37;;;4.20;;
20531;SDS011;10424;52.102;8.084;2024-01-16T13:07:45;9.73;;;4.13;;
20531;SDS011;10424;52.102;8.084;2024-01-16T13:10:12;10.47;;;4.17;;
20531;SDS011;10424;52.102;8.084;2024-01-16T13:12:44;9.90;;;4.43;;
20531;SDS011;10424;52.102;8.084;2024-01-16T13:15:12;8.40;;;3.77;;
20531;SDS011;10424;52.102;8.084;2024-01-16T13:17:42;11.43;;;3.80;;
20531;SDS011;10424;52.102;8.084;2024-01-16T13:20:10;10.90;;;4.87;;
20531;SDS011;10424;52.102;8.084;2024-01-16T13:22:39;8.80;;;4.33;;
20531;SDS011;10424;52.102;8.084;2024-01-16T13:25:07;9.50;;;4.70;;
20531;SDS011;10424;52.102;8.084;2024-01-16T13:27:34;11.17;;;4.17;;
20531;SDS011;10424;52.102;8.084;2024-01-16T13:30:03;8.43;;;3.60;;
20531;SDS011;10424;52.102;8.084;2024-01-16T13:32:31;13.53;;;5.97;;
20531;SDS011;10424;52.102;8.084;2024-01-16T13:35:01;9.73;;;4.20;;
20531;SDS011;10424;52.102;8.084;2024-01-16T13:37:32;7.27;;;3.27;;
20531;SDS011;10424;52.102;8.084;2024-01-16T13:40:03;8.43;;;3.23;;
20531;SDS011;10424;52.102;8.084;2024-01-16T13:42:33;10.67;;;3.97;;
20531;SDS011;10424;52.102;8.084;2024-01-16T13:45:02;10.20;;;3.37;;
20531;SDS011;10424;52.102;8.084;2024-01-16T13:47:30;10.47;;;4.27;;
20531;SDS011;10424;52.102;8.084;2024-01-16T13:49:58;10.03;;;3.90;;
20531;SDS011;10424;52.102;8.084;2024-01-16T13:52:28;9.07;;;3.57;;
20531;SDS011;10424;52.102;8.084;2024-01-16T13:54:56;12.20;;;4.13;;
20531;SDS011;10424;52.102;8.084;2024-01-16T13:57:23;7.27;;;4.00;;
20531;SDS011;10424;52.102;8.084;2024-01-16T13:59:50;8.03;;;4.03;;
20531;SDS011;10424;52.102;8.084;2024-01-16T14:02:20;20.93;;;5.60;;
20531;SDS011;10424;52.102;8.084;2024-01-16T14:04:47;6.10;;;3.07;;
20531;SDS011;10424;52.102;8.084;2024-01-16T14:07:14;10.00;;;3.13;;
20531;SDS011;10424;52.102;8.084;2024-01-16T14:09:42;10.70;;;4.10;;
20531;SDS011;10424;52.102;8.084;2024-01-16T14:12:10;11.07;;;4.50;;
20531;SDS011;10424;52.102;8.084;2024-01-16T14:14:38;8.63;;;4.30;;
20531;SDS011;10424;52.102;8.084;2024-01-16T14:17:05;18.23;;;5.10;;
20531;SDS011;10424;52.102;8.084;2024-01-16T14:19:35;14.57;;;4.40;;
20531;SDS011;10424;52.102;8.084;2024-01-16T14:22:03;9.40;;;4.40;;
20531;SDS011;10424;52.102;8.084;2024-01-16T14:24:30;11.00;;;6.10;;
20531;SDS011;10424;52.102;8.084;2024-01-16T14:26:58;14.33;;;5.87;;
20531;SDS011;10424;52.102;8.084;2024-01-16T14:29:25;17.40;;;7.27;;
20531;SDS011;10424;52.102;8.084;2024-01-16T14:31:53;17.83;;;7.30;;
20531;SDS011;10424;52.102;8.084;2024-01-16T14:34:21;10.90;;;4.80;;
20531;SDS011;10424;52.102;8.084;2024-01-16T14:36:50;7.83;;;3.47;;
20531;SDS011;10424;52.102;8.084;2024-01-16T14:39:18;15.37;;;5.67;;
20531;SDS011;10424;52.102;8.084;2024-01-16T14:41:49;9.40;;;4.17;;
20531;SDS011;10424;52.102;8.084;2024-01-16T14:44:17;10.10;;;4.50;;
20531;SDS011;10424;52.102;8.084;2024-01-16T14:46:44;10.57;;;4.30;;
20531;SDS011;10424;52.102;8.084;2024-01-16T14:49:11;8.43;;;4.37;;